sensor_id;sensor_type;location;lat;lon;timestamp;P1;durP1;ratioP1;P2;durP2;ratioP2
41436;SDS011;27178;49.460;10.850;2023-08-20T00:01:40;6.18;;;4.15;;
41436;SDS011;27178;49.460;10.850;2023-08-20T00:04:10;5.15;;;3.80;;
41436;SDS011;27178;49.460;10.850;2023-08-20T00:06:40;4.20;;;3.90;;
41436;SDS011;27178;49.460;10.850;2023-08-20T00:09:09;4.38;;;3.97;;
41436;SDS011;27178;49.460;10.850;2023-08-20T00:11:37;6.05;;;4.00;;
41436;SDS011;27178;49.460;10.850;2023-08-20T00:14:06;4.97;;;3.92;;
41436;SDS011;27178;49.460;10.850;2023-08-20T00:16:34;5.15;;;3.97;;
41436;SDS011;27178;49.460;10.850;2023-08-20T00:19:03;4.15;;;3.83;;
41436;SDS011;27178;49.460;10.850;2023-08-20T00:21:35;4.18;;;3.75;;
41436;SDS011;27178;49.460;10.850;2023-08-20T00:24:07;4.50;;;4.10;;
41436;SDS011;27178;49.460;10.850;2023-08-20T00:26:37;4.57;;;4.18;;
41436;SDS011;27178;49.460;10.850;2023-08-20T00:29:05;5.68;;;5.15;;
41436;SDS011;27178;49.460;10.850;2023-08-20T00:31:34;5.22;;;4.72;;
41436;SDS011;27178;49.460;10.850;2023-08-20T00:34:02;4.53;;;4.13;;
41436;SDS011;27178;49.460;10.850;2023-08-20T00:36:34;4.30;;;4.00;;
41436;SDS011;27178;49.460;10.850;2023-08-20T00:39:03;5.80;;;4.63;;
41436;SDS011;27178;49.460;10.850;2023-08-20T00:41:32;7.88;;;4.90;;
41436;SDS011;27178;49.460;10.850;2023-08-20T00:44:00;4.78;;;4.38;;
41436;SDS011;27178;49.460;10.850;2023-08-20T00:46:29;5.47;;;4.88;;
41436;SDS011;27178;49.460;10.850;2023-08-20T00:48:59;5.95;;;4.57;;
41436;SDS011;27178;49.460;10.850;2023-08-20T00:51:27;5.97;;;5.00;;
41436;SDS011;27178;49.460;10.850;2023-08-20T00:53:58;5.90;;;4.88;;
41436;SDS011;27178;49.460;10.850;2023-08-20T00:56:27;6.20;;;4.80;;
41436;SDS011;27178;49.460;10.850;2023-08-20T00:58:55;4.70;;;3.95;;
41436;SDS011;27178;49.460;10.850;2023-08-20T01:01:25;5.82;;;4.85;;
41436;SDS011;27178;49.460;10.850;2023-08-20T01:03:54;4.90;;;4.40;;
41436;SDS011;27178;49.460;10.850;2023-08-20T01:06:23;4.97;;;4.57;;
41436;SDS011;27178;49.460;10.850;2023-08-20T01:09:04;4.55;;;4.15;;
41436;SDS011;27178;49.460;10.850;2023-08-20T01:11:41;6.10;;;4.55;;
41436;SDS011;27178;49.460;10.850;2023-08-20T01:14:17;5.32;;;4.28;;
41436;SDS011;27178;49.460;10.850;2023-08-20T01:16:46;5.28;;;4.70;;
41436;SDS011;27178;49.460;10.850;2023-08-20T01:19:16;5.32;;;4.80;;
41436;SDS011;27178;49.460;10.850;2023-08-20T01:21:47;4.45;;;4.05;;
41436;SDS011;27178;49.460;10.850;2023-08-20T01:24:28;5.30;;;4.00;;
41436;SDS011;27178;49.460;10.850;2023-08-20T01:27:19;5.38;;;4.85;;
41436;SDS011;27178;49.460;10.850;2023-08-20T01:30:05;6.47;;;5.22;;
41436;SDS011;27178;49.460;10.850;2023-08-20T01:32:35;5.22;;;4.78;;
41436;SDS011;27178;49.460;10.850;2023-08-20T01:35:04;5.80;;;4.35;;
41436;SDS011;27178;49.460;10.850;2023-08-20T01:37:33;4.38;;;4.05;;
41436;SDS011;27178;49.460;10.850;2023-08-20T01:40:01;6.75;;;5.05;;
41436;SDS011;27178;49.460;10.850;2023-08-20T01:42:33;4.55;;;4.15;;
41436;SDS011;27178;49.460;10.850;2023-08-20T01:45:02;6.00;;;4.35;;
41436;SDS011;27178;49.460;10.850;2023-08-20T01:47:32;6.32;;;4.18;;
41436;SDS011;27178;49.460;10.850;2023-08-20T01:50:01;4.18;;;3.78;;
41436;SDS011;27178;49.460;10.850;2023-08-20T01:52:33;5.00;;;4.60;;
41436;SDS011;27178;49.460;10.850;2023-08-20T01:55:01;4.28;;;3.97;;
41436;SDS011;27178;49.460;10.850;2023-08-20T01:57:31;5.88;;;3.97;;
41436;SDS011;27178;49.460;10.850;2023-08-20T02:00:00;4.78;;;4.38;;
41436;SDS011;27178;49.460;10.850;2023-08-20T02:02:31;5.97;;;4.43;;
41436;SDS011;27178;49.460;10.850;2023-08-20T02:05:01;4.90;;;4.32;;
41436;SDS011;27178;49.460;10.850;2023-08-20T02:07:30;5.53;;;4.50;;
41436;SDS011;27178;49.460;10.850;2023-08-20T02:09:59;4.65;;;4.25;;
41436;SDS011;27178;49.460;10.850;2023-08-20T02:12:27;4.85;;;4.43;;
41436;SDS011;27178;49.460;10.850;2023-08-20T02:14:56;4.82;;;4.43;;
41436;SDS011;27178;49.460;10.850;2023-08-20T02:17:24;4.20;;;3.80;;
41436;SDS011;27178;49.460;10.850;2023-08-20T02:19:55;4.57;;;4.00;;
41436;SDS011;27178;49.460;10.850;2023-08-20T02:22:23;4.63;;;4.22;;
41436;SDS011;27178;49.460;10.850;2023-08-20T02:24:52;4.32;;;3.92;;
41436;SDS011;27178;49.460;10.850;2023-08-20T02:27:21;7.20;;;4.15;;
41436;SDS011;27178;49.460;10.850;2023-08-20T02:29:50;4.53;;;3.85;;
41436;SDS011;27178;49.460;10.850;2023-08-20T02:32:18;5.43;;;4.38;;
41436;SDS011;27178;49.460;10.850;2023-08-20T02:34:48;5.30;;;4.40;;
41436;SDS011;27178;49.460;10.850;2023-08-20T02:37:18;4.65;;;4.25;;
41436;SDS011;27178;49.460;10.850;2023-08-20T02:39:47;4.97;;;4.53;;
41436;SDS011;27178;49.460;10.850;2023-08-20T02:42:15;6.00;;;4.85;;
41436;SDS011;27178;49.460;10.850;2023-08-20T02:44:44;6.00;;;4.50;;
41436;SDS011;27178;49.460;10.850;2023-08-20T02:47:12;6.85;;;4.30;;
41436;SDS011;27178;49.460;10.850;2023-08-20T02:49:40;4.53;;;4.07;;
41436;SDS011;27178;49.460;10.850;2023-08-20T02:52:09;5.10;;;4.65;;
41436;SDS011;27178;49.460;10.850;2023-08-20T02:54:39;5.50;;;4.70;;
41436;SDS011;27178;49.460;10.850;2023-08-20T02:57:08;8.02;;;4.53;;
41436;SDS011;27178;49.460;10.850;2023-08-20T02:59:36;5.40;;;4.38;;
41436;SDS011;27178;49.460;10.850;2023-08-20T03:02:05;5.10;;;4.60;;
41436;SDS011;27178;49.460;10.850;2023-08-20T03:04:34;5.25;;;4.75;;
41436;SDS011;27178;49.460;10.850;2023-08-20T03:07:02;5.68;;;4.70;;
41436;SDS011;27178;49.460;10.850;2023-08-20T03:09:31;5.50;;;5.00;;
41436;SDS011;27178;49.460;10.850;2023-08-20T03:12:01;5.25;;;4.85;;
41436;SDS011;27178;49.460;10.850;2023-08-20T03:14:30;7.43;;;4.93;;
41436;SDS011;27178;49.460;10.850;2023-08-20T03:16:58;5.80;;;5.30;;
41436;SDS011;27178;49.460;10.850;2023-08-20T03:19:29;5.97;;;5.43;;
41436;SDS011;27178;49.460;10.850;2023-08-20T03:22:00;5.53;;;5.03;;
41436;SDS011;27178;49.460;10.850;2023-08-20T03:24:29;6.80;;;4.75;;
41436;SDS011;27178;49.460;10.850;2023-08-20T03:26:57;5.30;;;4.80;;
41436;SDS011;27178;49.460;10.850;2023-08-20T03:29:27;5.10;;;4.70;;
41436;SDS011;27178;49.460;10.850;2023-08-20T03:31:55;6.03;;;5.43;;
41436;SDS011;27178;49.460;10.850;2023-08-20T03:34:24;11.20;;;6.65;;
41436;SDS011;27178;49.460;10.850;2023-08-20T03:36:53;5.90;;;5.40;;
41436;SDS011;27178;49.460;10.850;2023-08-20T03:39:21;7.65;;;4.95;;
41436;SDS011;27178;49.460;10.850;2023-08-20T03:41:50;6.05;;;5.45;;
41436;SDS011;27178;49.460;10.850;2023-08-20T03:44:19;6.45;;;5.30;;
41436;SDS011;27178;49.460;10.850;2023-08-20T03:46:49;5.63;;;5.20;;
41436;SDS011;27178;49.460;10.850;2023-08-20T03:49:17;5.90;;;5.40;;
41436;SDS011;27178;49.460;10.850;2023-08-20T03:51:46;7.68;;;5.75;;
41436;SDS011;27178;49.460;10.850;2023-08-20T03:54:29;5.82;;;5.32;;
41436;SDS011;27178;49.460;10.850;2023-08-20T03:56:58;7.40;;;5.63;;
41436;SDS011;27178;49.460;10.850;2023-08-20T03:59:27;5.95;;;5.55;;
41436;SDS011;27178;49.460;10.850;2023-08-20T04:01:57;5.95;;;5.45;;
41436;SDS011;27178;49.460;10.850;2023-08-20T04:04:25;6.05;;;5.47;;
41436;SDS011;27178;49.460;10.850;2023-08-20T04:06:55;7.30;;;6.60;;
41436;SDS011;27178;49.460;10.850;2023-08-20T04:09:23;7.80;;;7.03;;
41436;SDS011;27178;49.460;10.850;2023-08-20T04:11:52;6.75;;;6.20;;
41436;SDS011;27178;49.460;10.850;2023-08-20T04:14:20;8.43;;;6.72;;
41436;SDS011;27178;49.460;10.850;2023-08-20T04:16:48;7.60;;;7.00;;
41436;SDS011;27178;49.460;10.850;2023-08-20T04:19:18;11.40;;;10.23;;
41436;SDS011;27178;49.460;10.850;2023-08-20T04:21:47;12.30;;;11.10;;
41436;SDS011;27178;49.460;10.850;2023-08-20T04:24:15;11.80;;;10.70;;
41436;SDS011;27178;49.460;10.850;2023-08-20T04:26:44;12.50;;;11.38;;
41436;SDS011;27178;49.460;10.850;2023-08-20T04:29:12;12.13;;;11.05;;
41436;SDS011;27178;49.460;10.850;2023-08-20T04:31:41;11.38;;;10.48;;
41436;SDS011;27178;49.460;10.850;2023-08-20T04:34:09;12.35;;;10.30;;
41436;SDS011;27178;49.460;10.850;2023-08-20T04:36:39;12.68;;;11.57;;
41436;SDS011;27178;49.460;10.850;2023-08-20T04:39:07;12.23;;;11.30;;
41436;SDS011;27178;49.460;10.850;2023-08-20T04:41:36;11.75;;;10.65;;
41436;SDS011;27178;49.460;10.850;2023-08-20T04:44:05;10.80;;;9.80;;
41436;SDS011;27178;49.460;10.850;2023-08-20T04:46:33;11.30;;;10.35;;
41436;SDS011;27178;49.460;10.850;2023-08-20T04:49:02;11.40;;;10.48;;
41436;SDS011;27178;49.460;10.850;2023-08-20T04:51:30;11.27;;;10.38;;
41436;SDS011;27178;49.460;10.850;2023-08-20T04:54:00;10.93;;;9.80;;
41436;SDS011;27178;49.460;10.850;2023-08-20T04:56:28;9.27;;;7.63;;
41436;SDS011;27178;49.460;10.850;2023-08-20T04:58:57;7.68;;;7.05;;
41436;SDS011;27178;49.460;10.850;2023-08-20T05:01:25;6.43;;;5.90;;
41436;SDS011;27178;49.460;10.850;2023-08-20T05:03:54;6.47;;;5.97;;
41436;SDS011;27178;49.460;10.850;2023-08-20T05:06:23;6.72;;;5.90;;
41436;SDS011;27178;49.460;10.850;2023-08-20T05:08:51;6.43;;;5.85;;
41436;SDS011;27178;49.460;10.850;2023-08-20T05:11:21;7.25;;;6.65;;
41436;SDS011;27178;49.460;10.850;2023-08-20T05:13:49;6.68;;;5.90;;
41436;SDS011;27178;49.460;10.850;2023-08-20T05:16:18;6.97;;;6.25;;
41436;SDS011;27178;49.460;10.850;2023-08-20T05:18:46;6.53;;;6.03;;
41436;SDS011;27178;49.460;10.850;2023-08-20T05:21:15;6.70;;;6.20;;
41436;SDS011;27178;49.460;10.850;2023-08-20T05:23:43;7.38;;;6.75;;
41436;SDS011;27178;49.460;10.850;2023-08-20T05:26:12;6.93;;;6.30;;
41436;SDS011;27178;49.460;10.850;2023-08-20T05:28:42;6.85;;;6.15;;
41436;SDS011;27178;49.460;10.850;2023-08-20T05:31:11;7.20;;;6.60;;
41436;SDS011;27178;49.460;10.850;2023-08-20T05:33:40;7.63;;;6.93;;
41436;SDS011;27178;49.460;10.850;2023-08-20T05:36:08;6.75;;;6.18;;
41436;SDS011;27178;49.460;10.850;2023-08-20T05:38:36;7.70;;;6.70;;
41436;SDS011;27178;49.460;10.850;2023-08-20T05:41:05;7.35;;;6.75;;
41436;SDS011;27178;49.460;10.850;2023-08-20T05:43:33;6.32;;;5.82;;
41436;SDS011;27178;49.460;10.850;2023-08-20T05:46:04;6.55;;;5.82;;
41436;SDS011;27178;49.460;10.850;2023-08-20T05:48:32;6.38;;;5.88;;
41436;SDS011;27178;49.460;10.850;2023-08-20T05:51:01;5.75;;;5.28;;
41436;SDS011;27178;49.460;10.850;2023-08-20T05:53:29;6.47;;;5.72;;
41436;SDS011;27178;49.460;10.850;2023-08-20T05:55:57;5.75;;;5.35;;
41436;SDS011;27178;49.460;10.850;2023-08-20T05:58:26;6.18;;;5.57;;
41436;SDS011;27178;49.460;10.850;2023-08-20T06:00:54;5.82;;;5.32;;
41436;SDS011;27178;49.460;10.850;2023-08-20T06:03:24;6.65;;;5.63;;
41436;SDS011;27178;49.460;10.850;2023-08-20T06:05:52;5.63;;;5.22;;
41436;SDS011;27178;49.460;10.850;2023-08-20T06:08:21;6.07;;;5.07;;
41436;SDS011;27178;49.460;10.850;2023-08-20T06:10:49;6.43;;;5.82;;
41436;SDS011;27178;49.460;10.850;2023-08-20T06:13:18;5.97;;;5.47;;
41436;SDS011;27178;49.460;10.850;2023-08-20T06:15:46;6.38;;;5.90;;
41436;SDS011;27178;49.460;10.850;2023-08-20T06:18:15;6.53;;;6.03;;
41436;SDS011;27178;49.460;10.850;2023-08-20T06:20:44;6.72;;;6.07;;
41436;SDS011;27178;49.460;10.850;2023-08-20T06:23:12;6.72;;;6.13;;
41436;SDS011;27178;49.460;10.850;2023-08-20T06:26:01;6.90;;;6.30;;
41436;SDS011;27178;49.460;10.850;2023-08-20T06:28:29;6.88;;;6.15;;
41436;SDS011;27178;49.460;10.850;2023-08-20T06:30:58;6.72;;;5.95;;
41436;SDS011;27178;49.460;10.850;2023-08-20T06:33:26;6.50;;;6.00;;
41436;SDS011;27178;49.460;10.850;2023-08-20T06:35:56;6.15;;;5.65;;
41436;SDS011;27178;49.460;10.850;2023-08-20T06:38:25;6.07;;;5.57;;
41436;SDS011;27178;49.460;10.850;2023-08-20T06:40:53;6.93;;;5.97;;
41436;SDS011;27178;49.460;10.850;2023-08-20T06:43:21;6.40;;;5.78;;
41436;SDS011;27178;49.460;10.850;2023-08-20T06:45:50;6.32;;;5.72;;
41436;SDS011;27178;49.460;10.850;2023-08-20T06:48:19;6.30;;;5.70;;
41436;SDS011;27178;49.460;10.850;2023-08-20T06:50:49;6.05;;;5.53;;
41436;SDS011;27178;49.460;10.850;2023-08-20T06:53:18;5.70;;;5.30;;
41436;SDS011;27178;49.460;10.850;2023-08-20T06:55:47;7.30;;;6.53;;
41436;SDS011;27178;49.460;10.850;2023-08-20T06:58:16;6.10;;;5.60;;
41436;SDS011;27178;49.460;10.850;2023-08-20T07:00:44;6.18;;;5.68;;
41436;SDS011;27178;49.460;10.850;2023-08-20T07:03:12;6.53;;;5.93;;
41436;SDS011;27178;49.460;10.850;2023-08-20T07:05:41;6.38;;;5.88;;
41436;SDS011;27178;49.460;10.850;2023-08-20T07:08:09;7.97;;;5.95;;
41436;SDS011;27178;49.460;10.850;2023-08-20T07:10:39;6.30;;;5.80;;
41436;SDS011;27178;49.460;10.850;2023-08-20T07:13:07;6.22;;;5.72;;
41436;SDS011;27178;49.460;10.850;2023-08-20T07:15:36;6.43;;;5.93;;
41436;SDS011;27178;49.460;10.850;2023-08-20T07:18:04;6.28;;;5.75;;
41436;SDS011;27178;49.460;10.850;2023-08-20T07:20:33;6.75;;;6.15;;
41436;SDS011;27178;49.460;10.850;2023-08-20T07:23:02;6.55;;;6.05;;
41436;SDS011;27178;49.460;10.850;2023-08-20T07:25:30;6.20;;;5.70;;
41436;SDS011;27178;49.460;10.850;2023-08-20T07:28:00;6.20;;;5.80;;
41436;SDS011;27178;49.460;10.850;2023-08-20T07:30:29;6.15;;;5.72;;
41436;SDS011;27178;49.460;10.850;2023-08-20T07:32:57;8.10;;;7.30;;
41436;SDS011;27178;49.460;10.850;2023-08-20T07:35:31;7.47;;;6.88;;
41436;SDS011;27178;49.460;10.850;2023-08-20T07:38:00;6.53;;;6.00;;
41436;SDS011;27178;49.460;10.850;2023-08-20T07:40:28;6.20;;;5.68;;
41436;SDS011;27178;49.460;10.850;2023-08-20T07:43:01;7.22;;;6.63;;
41436;SDS011;27178;49.460;10.850;2023-08-20T07:45:29;6.60;;;6.00;;
41436;SDS011;27178;49.460;10.850;2023-08-20T07:47:58;6.43;;;5.82;;
41436;SDS011;27178;49.460;10.850;2023-08-20T07:50:26;6.30;;;5.70;;
41436;SDS011;27178;49.460;10.850;2023-08-20T07:52:56;6.72;;;6.22;;
41436;SDS011;27178;49.460;10.850;2023-08-20T07:55:24;6.95;;;6.35;;
41436;SDS011;27178;49.460;10.850;2023-08-20T07:57:53;7.18;;;6.50;;
41436;SDS011;27178;49.460;10.850;2023-08-20T08:00:23;6.47;;;5.97;;
41436;SDS011;27178;49.460;10.850;2023-08-20T08:02:51;5.85;;;5.43;;
41436;SDS011;27178;49.460;10.850;2023-08-20T08:05:19;6.47;;;5.90;;
41436;SDS011;27178;49.460;10.850;2023-08-20T08:07:48;6.70;;;6.15;;
41436;SDS011;27178;49.460;10.850;2023-08-20T08:10:16;6.65;;;5.97;;
41436;SDS011;27178;49.460;10.850;2023-08-20T08:12:45;6.07;;;5.57;;
41436;SDS011;27178;49.460;10.850;2023-08-20T08:15:13;6.80;;;6.18;;
41436;SDS011;27178;49.460;10.850;2023-08-20T08:17:45;6.03;;;5.57;;
41436;SDS011;27178;49.460;10.850;2023-08-20T08:20:13;6.53;;;6.03;;
41436;SDS011;27178;49.460;10.850;2023-08-20T08:22:41;7.00;;;6.38;;
41436;SDS011;27178;49.460;10.850;2023-08-20T08:25:10;6.05;;;5.53;;
41436;SDS011;27178;49.460;10.850;2023-08-20T08:27:40;5.82;;;5.43;;
41436;SDS011;27178;49.460;10.850;2023-08-20T08:30:25;5.85;;;5.32;;
41436;SDS011;27178;49.460;10.850;2023-08-20T08:32:55;6.35;;;5.72;;
41436;SDS011;27178;49.460;10.850;2023-08-20T08:35:24;6.00;;;5.50;;
41436;SDS011;27178;49.460;10.850;2023-08-20T08:37:52;7.85;;;5.65;;
41436;SDS011;27178;49.460;10.850;2023-08-20T08:40:20;6.35;;;5.75;;
41436;SDS011;27178;49.460;10.850;2023-08-20T08:42:49;6.82;;;5.65;;
41436;SDS011;27178;49.460;10.850;2023-08-20T08:45:18;6.57;;;5.85;;
41436;SDS011;27178;49.460;10.850;2023-08-20T08:47:47;6.00;;;5.53;;
41436;SDS011;27178;49.460;10.850;2023-08-20T08:50:18;5.50;;;4.80;;
41436;SDS011;27178;49.460;10.850;2023-08-20T08:52:47;5.82;;;5.32;;
41436;SDS011;27178;49.460;10.850;2023-08-20T08:55:19;7.18;;;5.45;;
41436;SDS011;27178;49.460;10.850;2023-08-20T08:57:48;5.35;;;4.95;;
41436;SDS011;27178;49.460;10.850;2023-08-20T09:00:16;6.20;;;5.20;;
41436;SDS011;27178;49.460;10.850;2023-08-20T09:02:48;5.45;;;5.05;;
41436;SDS011;27178;49.460;10.850;2023-08-20T09:05:17;5.07;;;4.55;;
41436;SDS011;27178;49.460;10.850;2023-08-20T09:07:47;5.95;;;5.07;;
41436;SDS011;27178;49.460;10.850;2023-08-20T09:10:22;5.90;;;4.88;;
41436;SDS011;27178;49.460;10.850;2023-08-20T09:12:53;6.25;;;5.45;;
41436;SDS011;27178;49.460;10.850;2023-08-20T09:15:29;6.50;;;5.22;;
41436;SDS011;27178;49.460;10.850;2023-08-20T09:18:00;5.57;;;5.15;;
41436;SDS011;27178;49.460;10.850;2023-08-20T09:20:37;5.22;;;4.72;;
41436;SDS011;27178;49.460;10.850;2023-08-20T09:23:10;5.50;;;5.00;;
41436;SDS011;27178;49.460;10.850;2023-08-20T09:25:39;5.85;;;5.32;;
41436;SDS011;27178;49.460;10.850;2023-08-20T09:28:09;5.78;;;5.00;;
41436;SDS011;27178;49.460;10.850;2023-08-20T09:30:37;5.68;;;5.07;;
41436;SDS011;27178;49.460;10.850;2023-08-20T09:33:09;6.88;;;5.30;;
41436;SDS011;27178;49.460;10.850;2023-08-20T09:35:45;6.68;;;4.88;;
41436;SDS011;27178;49.460;10.850;2023-08-20T09:38:19;5.03;;;4.47;;
41436;SDS011;27178;49.460;10.850;2023-08-20T09:40:48;5.75;;;4.72;;
41436;SDS011;27178;49.460;10.850;2023-08-20T09:43:21;7.78;;;5.05;;
41436;SDS011;27178;49.460;10.850;2023-08-20T09:45:52;5.43;;;4.85;;
41436;SDS011;27178;49.460;10.850;2023-08-20T09:48:24;4.82;;;4.32;;
41436;SDS011;27178;49.460;10.850;2023-08-20T09:51:00;4.72;;;4.35;;
41436;SDS011;27178;49.460;10.850;2023-08-20T09:56:14;4.72;;;4.32;;
41436;SDS011;27178;49.460;10.850;2023-08-20T09:58:49;4.72;;;4.18;;
41436;SDS011;27178;49.460;10.850;2023-08-20T10:01:18;4.82;;;4.32;;
41436;SDS011;27178;49.460;10.850;2023-08-20T10:04:00;4.70;;;4.30;;
41436;SDS011;27178;49.460;10.850;2023-08-20T10:06:30;4.13;;;3.72;;
41436;SDS011;27178;49.460;10.850;2023-08-20T10:09:01;4.00;;;3.60;;
41436;SDS011;27178;49.460;10.850;2023-08-20T10:11:29;4.78;;;4.30;;
41436;SDS011;27178;49.460;10.850;2023-08-20T10:13:58;6.25;;;3.63;;
41436;SDS011;27178;49.460;10.850;2023-08-20T10:16:27;4.15;;;3.53;;
41436;SDS011;27178;49.460;10.850;2023-08-20T10:18:58;4.80;;;4.28;;
41436;SDS011;27178;49.460;10.850;2023-08-20T10:21:31;5.20;;;4.72;;
41436;SDS011;27178;49.460;10.850;2023-08-20T10:24:02;4.82;;;3.63;;
41436;SDS011;27178;49.460;10.850;2023-08-20T10:26:33;4.13;;;3.60;;
41436;SDS011;27178;49.460;10.850;2023-08-20T10:32:03;5.05;;;4.47;;
41436;SDS011;27178;49.460;10.850;2023-08-20T10:34:36;5.88;;;5.28;;
41436;SDS011;27178;49.460;10.850;2023-08-20T10:37:10;5.55;;;5.05;;
41436;SDS011;27178;49.460;10.850;2023-08-20T10:39:39;5.18;;;4.75;;
41436;SDS011;27178;49.460;10.850;2023-08-20T10:42:09;4.45;;;4.03;;
41436;SDS011;27178;49.460;10.850;2023-08-20T10:44:58;5.07;;;4.57;;
41436;SDS011;27178;49.460;10.850;2023-08-20T10:47:42;4.57;;;4.18;;
41436;SDS011;27178;49.460;10.850;2023-08-20T10:50:11;4.38;;;3.92;;
41436;SDS011;27178;49.460;10.850;2023-08-20T10:52:48;4.63;;;4.03;;
41436;SDS011;27178;49.460;10.850;2023-08-20T10:55:21;4.50;;;4.10;;
41436;SDS011;27178;49.460;10.850;2023-08-20T10:57:54;4.47;;;4.10;;
41436;SDS011;27178;49.460;10.850;2023-08-20T11:00:23;5.72;;;4.43;;
41436;SDS011;27178;49.460;10.850;2023-08-20T11:02:52;4.65;;;4.28;;
41436;SDS011;27178;49.460;10.850;2023-08-20T11:05:21;5.47;;;4.43;;
41436;SDS011;27178;49.460;10.850;2023-08-20T11:07:50;4.93;;;4.30;;
41436;SDS011;27178;49.460;10.850;2023-08-20T11:10:19;4.80;;;4.22;;
41436;SDS011;27178;49.460;10.850;2023-08-20T11:12:48;5.90;;;4.25;;
41436;SDS011;27178;49.460;10.850;2023-08-20T11:15:16;5.03;;;4.53;;
41436;SDS011;27178;49.460;10.850;2023-08-20T11:17:45;4.97;;;4.57;;
41436;SDS011;27178;49.460;10.850;2023-08-20T11:20:17;6.22;;;4.32;;
41436;SDS011;27178;49.460;10.850;2023-08-20T11:22:45;9.65;;;4.75;;
41436;SDS011;27178;49.460;10.850;2023-08-20T11:25:15;4.65;;;4.25;;
41436;SDS011;27178;49.460;10.850;2023-08-20T11:27:43;6.75;;;4.50;;
41436;SDS011;27178;49.460;10.850;2023-08-20T11:30:12;5.85;;;5.05;;
41436;SDS011;27178;49.460;10.850;2023-08-20T11:32:41;5.60;;;4.20;;
41436;SDS011;27178;49.460;10.850;2023-08-20T11:35:11;4.53;;;4.13;;
41436;SDS011;27178;49.460;10.850;2023-08-20T11:37:40;4.50;;;4.20;;
41436;SDS011;27178;49.460;10.850;2023-08-20T11:40:09;4.43;;;4.03;;
41436;SDS011;27178;49.460;10.850;2023-08-20T11:42:39;4.70;;;4.30;;
41436;SDS011;27178;49.460;10.850;2023-08-20T11:45:09;5.68;;;4.13;;
41436;SDS011;27178;49.460;10.850;2023-08-20T11:47:38;5.53;;;3.83;;
41436;SDS011;27178;49.460;10.850;2023-08-20T11:50:08;3.95;;;3.65;;
41436;SDS011;27178;49.460;10.850;2023-08-20T11:52:49;4.18;;;3.78;;
41436;SDS011;27178;49.460;10.850;2023-08-20T11:55:29;4.88;;;4.47;;
41436;SDS011;27178;49.460;10.850;2023-08-20T11:57:59;4.55;;;4.15;;
41436;SDS011;27178;49.460;10.850;2023-08-20T12:00:27;4.20;;;3.90;;
41436;SDS011;27178;49.460;10.850;2023-08-20T12:02:58;3.88;;;3.58;;
41436;SDS011;27178;49.460;10.850;2023-08-20T12:05:26;4.25;;;3.85;;
41436;SDS011;27178;49.460;10.850;2023-08-20T12:07:55;5.72;;;4.63;;
41436;SDS011;27178;49.460;10.850;2023-08-20T12:10:31;6.22;;;5.35;;
41436;SDS011;27178;49.460;10.850;2023-08-20T12:13:01;5.57;;;4.75;;
41436;SDS011;27178;49.460;10.850;2023-08-20T12:15:30;4.20;;;3.90;;
41436;SDS011;27178;49.460;10.850;2023-08-20T12:17:59;3.90;;;3.60;;
41436;SDS011;27178;49.460;10.850;2023-08-20T12:20:28;4.03;;;3.72;;
41436;SDS011;27178;49.460;10.850;2023-08-20T12:22:58;4.07;;;3.78;;
41436;SDS011;27178;49.460;10.850;2023-08-20T12:25:29;3.65;;;3.33;;
41436;SDS011;27178;49.460;10.850;2023-08-20T12:28:00;6.00;;;3.60;;
41436;SDS011;27178;49.460;10.850;2023-08-20T12:30:30;5.05;;;3.60;;
41436;SDS011;27178;49.460;10.850;2023-08-20T12:33:02;4.18;;;3.50;;
41436;SDS011;27178;49.460;10.850;2023-08-20T12:35:30;4.47;;;3.58;;
41436;SDS011;27178;49.460;10.850;2023-08-20T12:37:59;11.45;;;10.40;;
41436;SDS011;27178;49.460;10.850;2023-08-20T12:40:28;6.57;;;5.68;;
41436;SDS011;27178;49.460;10.850;2023-08-20T12:42:56;4.65;;;4.25;;
41436;SDS011;27178;49.460;10.850;2023-08-20T12:45:26;4.78;;;3.78;;
41436;SDS011;27178;49.460;10.850;2023-08-20T12:55:31;4.07;;;3.25;;
41436;SDS011;27178;49.460;10.850;2023-08-20T12:58:00;3.42;;;3.13;;
41436;SDS011;27178;49.460;10.850;2023-08-20T13:00:30;4.22;;;3.42;;
41436;SDS011;27178;49.460;10.850;2023-08-20T13:03:00;4.03;;;3.20;;
41436;SDS011;27178;49.460;10.850;2023-08-20T13:05:28;3.40;;;3.10;;
41436;SDS011;27178;49.460;10.850;2023-08-20T13:07:57;4.80;;;2.97;;
41436;SDS011;27178;49.460;10.850;2023-08-20T13:10:26;5.60;;;3.20;;
41436;SDS011;27178;49.460;10.850;2023-08-20T13:12:57;2.88;;;2.67;;
41436;SDS011;27178;49.460;10.850;2023-08-20T13:15:29;4.03;;;3.20;;
41436;SDS011;27178;49.460;10.850;2023-08-20T13:18:02;3.75;;;3.00;;
41436;SDS011;27178;49.460;10.850;2023-08-20T13:20:31;5.97;;;3.45;;
41436;SDS011;27178;49.460;10.850;2023-08-20T13:23:00;4.03;;;3.28;;
41436;SDS011;27178;49.460;10.850;2023-08-20T13:25:28;4.65;;;3.20;;
41436;SDS011;27178;49.460;10.850;2023-08-20T13:27:57;3.20;;;2.88;;
41436;SDS011;27178;49.460;10.850;2023-08-20T13:30:25;3.47;;;2.92;;
41436;SDS011;27178;49.460;10.850;2023-08-20T13:32:55;3.58;;;3.15;;
41436;SDS011;27178;49.460;10.850;2023-08-20T13:35:23;4.00;;;2.85;;
41436;SDS011;27178;49.460;10.850;2023-08-20T13:37:51;3.03;;;2.67;;
41436;SDS011;27178;49.460;10.850;2023-08-20T13:40:23;6.03;;;3.10;;
41436;SDS011;27178;49.460;10.850;2023-08-20T13:42:52;4.70;;;2.90;;
41436;SDS011;27178;49.460;10.850;2023-08-20T13:45:21;3.33;;;2.92;;
41436;SDS011;27178;49.460;10.850;2023-08-20T13:47:50;3.35;;;3.05;;
41436;SDS011;27178;49.460;10.850;2023-08-20T13:50:19;3.90;;;2.72;;
41436;SDS011;27178;49.460;10.850;2023-08-20T13:52:47;3.90;;;2.85;;
41436;SDS011;27178;49.460;10.850;2023-08-20T13:58:09;2.80;;;2.50;;
41436;SDS011;27178;49.460;10.850;2023-08-20T14:00:38;3.85;;;2.88;;
41436;SDS011;27178;49.460;10.850;2023-08-20T14:03:08;4.00;;;2.90;;
41436;SDS011;27178;49.460;10.850;2023-08-20T14:05:38;3.65;;;2.78;;
41436;SDS011;27178;49.460;10.850;2023-08-20T14:08:07;4.25;;;3.22;;
41436;SDS011;27178;49.460;10.850;2023-08-20T14:10:36;3.10;;;2.60;;
41436;SDS011;27178;49.460;10.850;2023-08-20T14:13:04;3.20;;;2.70;;
41436;SDS011;27178;49.460;10.850;2023-08-20T14:15:32;7.60;;;3.40;;
41436;SDS011;27178;49.460;10.850;2023-08-20T14:18:03;3.58;;;2.80;;
41436;SDS011;27178;49.460;10.850;2023-08-20T14:20:34;3.97;;;2.60;;
41436;SDS011;27178;49.460;10.850;2023-08-20T14:23:04;3.67;;;2.63;;
41436;SDS011;27178;49.460;10.850;2023-08-20T14:25:33;3.95;;;2.80;;
41436;SDS011;27178;49.460;10.850;2023-08-20T14:28:01;4.95;;;2.70;;
41436;SDS011;27178;49.460;10.850;2023-08-20T14:30:30;2.72;;;2.47;;
41436;SDS011;27178;49.460;10.850;2023-08-20T14:32:58;5.13;;;2.80;;
41436;SDS011;27178;49.460;10.850;2023-08-20T14:35:26;4.00;;;2.85;;
41436;SDS011;27178;49.460;10.850;2023-08-20T14:37:56;3.33;;;3.03;;
41436;SDS011;27178;49.460;10.850;2023-08-20T14:40:25;3.42;;;3.13;;
41436;SDS011;27178;49.460;10.850;2023-08-20T14:42:54;4.88;;;3.58;;
41436;SDS011;27178;49.460;10.850;2023-08-20T14:45:23;4.72;;;3.50;;
41436;SDS011;27178;49.460;10.850;2023-08-20T14:47:51;3.72;;;3.40;;
41436;SDS011;27178;49.460;10.850;2023-08-20T14:50:20;4.22;;;3.08;;
41436;SDS011;27178;49.460;10.850;2023-08-20T14:52:49;3.75;;;3.13;;
41436;SDS011;27178;49.460;10.850;2023-08-20T14:55:18;3.88;;;2.72;;
41436;SDS011;27178;49.460;10.850;2023-08-20T14:57:49;3.78;;;3.00;;
41436;SDS011;27178;49.460;10.850;2023-08-20T15:00:18;3.30;;;2.90;;
41436;SDS011;27178;49.460;10.850;2023-08-20T15:02:47;3.63;;;2.95;;
41436;SDS011;27178;49.460;10.850;2023-08-20T15:05:16;2.63;;;2.40;;